Time;durP1;ratioP1;P1;durP2;ratioP2;P2;SDS_P1;SDS_P2;PMS_P1;PMS_P2;Temp;Humidity;BMP_temperature;BMP_pressure;BME280_temperature;BME280_humidity;BME280_pressure;Samples;Min_cycle;Max_cycle;Signal;HPM_P1;HPM_P2
2022/04/30 00:02:07;;;;;;;5.55;3.70;;;;;;;;;;5014875;28;20383;-81
2022/04/30 00:04:51;;;;;;;11.20;4.97;;;;;;;;;;4998576;28;20033;-81
2022/04/30 00:07:18;;;;;;;7.22;3.80;;;;;;;;;;5014998;28;20048;-81
2022/04/30 00:09:44;;;;;;;10.48;4.25;;;;;;;;;;5015025;28;20080;-81
2022/04/30 00:12:09;;;;;;;7.95;3.88;;;;;;;;;;4982361;28;20481;-83
2022/04/30 00:14:35;;;;;;;8.20;4.45;;;;;;;;;;5014146;28;20108;-83
2022/04/30 00:17:00;;;;;;;5.55;3.90;;;;;;;;;;4998725;28;20453;-83
2022/04/30 00:19:27;;;;;;;6.13;3.60;;;;;;;;;;5015994;28;20120;-83
2022/04/30 00:21:52;;;;;;;5.72;3.80;;;;;;;;;;5014827;28;20033;-83
2022/04/30 00:24:17;;;;;;;6.13;4.15;;;;;;;;;;5014028;28;20405;-83
2022/04/30 00:26:43;;;;;;;5.60;3.90;;;;;;;;;;4998332;28;20077;-81
2022/04/30 00:29:09;;;;;;;5.25;4.00;;;;;;;;;;5014796;28;20029;-82
2022/04/30 00:31:35;;;;;;;6.45;3.58;;;;;;;;;;5014649;28;20076;-82
2022/04/30 00:34:01;;;;;;;6.45;4.22;;;;;;;;;;5014029;28;20025;-81
2022/04/30 00:36:27;;;;;;;5.35;3.88;;;;;;;;;;4997762;28;20029;-82
2022/04/30 00:38:52;;;;;;;6.03;3.78;;;;;;;;;;5015571;28;20034;-82
2022/04/30 00:41:19;;;;;;;8.38;3.80;;;;;;;;;;5015368;28;20042;-82
2022/04/30 00:43:48;;;;;;;6.15;4.20;;;;;;;;;;4981980;28;20092;-82
2022/04/30 00:46:18;;;;;;;7.53;4.68;;;;;;;;;;5013606;28;20038;-82
2022/04/30 00:48:44;;;;;;;5.38;4.13;;;;;;;;;;5014433;28;20554;-82
2022/04/30 00:51:13;;;;;;;12.85;6.53;;;;;;;;;;5016303;28;20113;-82
2022/04/30 00:53:39;;;;;;;8.07;5.13;;;;;;;;;;5014524;28;20038;-82
2022/04/30 00:56:09;;;;;;;14.30;9.63;;;;;;;;;;4996824;28;20061;-82
2022/04/30 00:58:34;;;;;;;26.08;14.63;;;;;;;;;;5013830;28;20034;-81
2022/04/30 01:01:00;;;;;;;11.73;7.20;;;;;;;;;;4997286;28;20544;-82
2022/04/30 01:03:42;;;;;;;8.75;4.72;;;;;;;;;;4982982;28;20405;-82
2022/04/30 01:06:09;;;;;;;8.65;4.75;;;;;;;;;;4997031;28;20033;-82
2022/04/30 01:08:35;;;;;;;17.48;10.15;;;;;;;;;;5014769;28;20021;-81
2022/04/30 01:11:01;;;;;;;9.07;5.05;;;;;;;;;;4997370;28;20030;-81
2022/04/30 01:13:28;;;;;;;18.13;10.15;;;;;;;;;;5013383;28;20037;-82
2022/04/30 01:15:56;;;;;;;7.88;5.50;;;;;;;;;;4996732;28;20712;-81
2022/04/30 01:18:22;;;;;;;6.63;4.97;;;;;;;;;;4997304;28;20057;-81
2022/04/30 01:20:51;;;;;;;8.82;5.07;;;;;;;;;;4996873;28;20037;-80
2022/04/30 01:23:16;;;;;;;6.43;4.75;;;;;;;;;;4980572;28;20049;-81
2022/04/30 01:25:44;;;;;;;5.85;4.60;;;;;;;;;;4996043;28;20119;-82
2022/04/30 01:28:10;;;;;;;7.78;4.82;;;;;;;;;;4996682;28;20389;-82
2022/04/30 01:30:36;;;;;;;6.45;4.45;;;;;;;;;;5013233;28;20402;-82
2022/04/30 01:38:29;;;;;;;5.43;4.15;;;;;;;;;;5013415;28;20038;-81
2022/04/30 01:40:55;;;;;;;7.70;4.80;;;;;;;;;;4996780;28;20139;-82
2022/04/30 01:43:21;;;;;;;6.20;4.47;;;;;;;;;;5013813;28;20103;-82
2022/04/30 01:45:46;;;;;;;8.52;4.43;;;;;;;;;;4996616;28;20117;-82
2022/04/30 01:48:14;;;;;;;6.22;4.28;;;;;;;;;;4995749;28;20026;-82
2022/04/30 01:50:43;;;;;;;5.47;4.18;;;;;;;;;;5013356;28;20037;-81
2022/04/30 01:53:09;;;;;;;8.10;4.07;;;;;;;;;;4980936;28;20030;-82
2022/04/30 01:55:34;;;;;;;10.48;5.85;;;;;;;;;;5014251;28;20061;-82
2022/04/30 01:58:03;;;;;;;10.43;5.65;;;;;;;;;;4997116;28;20175;-82
2022/04/30 02:00:29;;;;;;;24.45;11.75;;;;;;;;;;4996684;28;20482;-81
2022/04/30 02:02:54;;;;;;;9.07;5.60;;;;;;;;;;5013365;28;20040;-82
2022/04/30 02:05:20;;;;;;;8.05;5.00;;;;;;;;;;5012517;28;20057;-81
2022/04/30 02:07:57;;;;;;;7.55;4.70;;;;;;;;;;5012463;28;20060;-82
2022/04/30 02:10:25;;;;;;;7.57;4.55;;;;;;;;;;4996497;28;20034;-81
2022/04/30 02:12:51;;;;;;;6.55;4.20;;;;;;;;;;4997045;28;20556;-81
2022/04/30 02:15:17;;;;;;;5.63;3.92;;;;;;;;;;5013980;28;20030;-81
2022/04/30 02:17:42;;;;;;;5.28;4.00;;;;;;;;;;5012851;28;20033;-81
2022/04/30 02:22:54;;;;;;;5.93;3.97;;;;;;;;;;4999062;28;20042;-82
2022/04/30 02:25:21;;;;;;;5.22;4.10;;;;;;;;;;5013646;28;20069;-82
2022/04/30 02:27:51;;;;;;;8.38;4.32;;;;;;;;;;5014161;28;20117;-82
2022/04/30 02:30:17;;;;;;;17.63;10.20;;;;;;;;;;4996402;28;20072;-82
2022/04/30 02:33:03;;;;;;;9.02;5.82;;;;;;;;;;5012510;28;20383;-81
2022/04/30 02:35:29;;;;;;;7.03;4.30;;;;;;;;;;5012139;28;20037;-81
2022/04/30 02:37:56;;;;;;;9.70;4.50;;;;;;;;;;5013683;28;20441;-82
2022/04/30 02:40:22;;;;;;;7.15;4.18;;;;;;;;;;4996758;28;20034;-80
2022/04/30 02:42:50;;;;;;;4.50;3.60;;;;;;;;;;5013782;28;20025;-81
2022/04/30 02:45:16;;;;;;;6.60;4.03;;;;;;;;;;5011600;28;20490;-81
2022/04/30 02:47:46;;;;;;;5.60;3.80;;;;;;;;;;5012601;28;20041;-81
2022/04/30 02:50:13;;;;;;;4.88;3.70;;;;;;;;;;5012356;28;20037;-82
2022/04/30 02:52:41;;;;;;;5.85;4.10;;;;;;;;;;4996186;28;20398;-81
2022/04/30 02:55:07;;;;;;;6.25;4.28;;;;;;;;;;4996107;28;20092;-81
2022/04/30 02:57:39;;;;;;;10.63;4.30;;;;;;;;;;5012277;28;20037;-81
2022/04/30 03:00:08;;;;;;;6.03;4.10;;;;;;;;;;5014824;28;20038;-82
2022/04/30 03:02:54;;;;;;;6.30;4.53;;;;;;;;;;4988573;28;20434;-81
2022/04/30 03:05:20;;;;;;;5.38;4.30;;;;;;;;;;5016612;28;20034;-82
2022/04/30 03:07:47;;;;;;;5.80;4.53;;;;;;;;;;4999668;28;20544;-81
2022/04/30 03:10:13;;;;;;;7.75;4.30;;;;;;;;;;5016924;28;20088;-81
2022/04/30 03:12:38;;;;;;;6.18;4.40;;;;;;;;;;4983409;28;20025;-82
2022/04/30 03:15:04;;;;;;;6.95;4.60;;;;;;;;;;4998772;28;20077;-82
2022/04/30 03:22:57;;;;;;;6.90;5.18;;;;;;;;;;5002114;28;20069;-81
2022/04/30 03:25:23;;;;;;;7.53;5.00;;;;;;;;;;5016663;28;20049;-81
2022/04/30 03:27:49;;;;;;;6.22;5.00;;;;;;;;;;5015781;28;20066;-81
2022/04/30 03:30:14;;;;;;;7.57;5.22;;;;;;;;;;5015052;28;20042;-82
2022/04/30 03:32:42;;;;;;;7.75;5.50;;;;;;;;;;4999414;28;20546;-81
2022/04/30 03:35:09;;;;;;;6.03;4.78;;;;;;;;;;5016435;28;20121;-81
2022/04/30 03:37:35;;;;;;;5.55;4.13;;;;;;;;;;4998336;28;20483;-81
2022/04/30 03:40:01;;;;;;;5.07;4.00;;;;;;;;;;5014905;28;20450;-81
2022/04/30 03:42:28;;;;;;;7.43;4.13;;;;;;;;;;4999062;28;20038;-81
2022/04/30 03:44:53;;;;;;;5.68;3.95;;;;;;;;;;4998435;28;20037;-81
2022/04/30 03:47:22;;;;;;;4.82;3.75;;;;;;;;;;5014858;28;20025;-82
2022/04/30 03:49:47;;;;;;;6.80;4.20;;;;;;;;;;5016517;28;20041;-81
2022/04/30 03:52:12;;;;;;;6.82;4.03;;;;;;;;;;5015258;28;20029;-81
2022/04/30 03:54:39;;;;;;;5.50;4.20;;;;;;;;;;5014708;28;20085;-81
2022/04/30 03:57:05;;;;;;;6.00;3.88;;;;;;;;;;4999435;28;20111;-81
2022/04/30 03:59:31;;;;;;;6.47;3.88;;;;;;;;;;5014978;28;20030;-82
2022/04/30 04:01:56;;;;;;;12.18;4.35;;;;;;;;;;4999571;28;20503;-82
2022/04/30 04:04:22;;;;;;;8.63;5.03;;;;;;;;;;4997786;28;20115;-81
2022/04/30 04:06:48;;;;;;;7.18;4.45;;;;;;;;;;4998872;28;20068;-81
2022/04/30 04:09:13;;;;;;;6.18;4.60;;;;;;;;;;5015222;28;20448;-81
2022/04/30 04:11:38;;;;;;;6.70;4.30;;;;;;;;;;4998101;28;20474;-81
2022/04/30 04:19:35;;;;;;;7.65;4.13;;;;;;;;;;5016155;28;20167;-81
2022/04/30 04:22:01;;;;;;;7.47;3.88;;;;;;;;;;5016286;28;20068;-81
2022/04/30 04:27:10;;;;;;;7.50;4.25;;;;;;;;;;5015899;28;20065;-81
2022/04/30 04:29:36;;;;;;;6.47;4.80;;;;;;;;;;4998430;28;20061;-81
2022/04/30 04:32:01;;;;;;;6.45;4.28;;;;;;;;;;5016239;28;20065;-80
2022/04/30 04:34:27;;;;;;;7.53;6.13;;;;;;;;;;5015036;28;20064;-81
2022/04/30 04:36:52;;;;;;;6.45;4.72;;;;;;;;;;4998731;28;20028;-81
2022/04/30 04:39:17;;;;;;;10.20;7.50;;;;;;;;;;4998069;28;20132;-80
2022/04/30 04:41:43;;;;;;;13.52;8.82;;;;;;;;;;5015748;28;20072;-82
2022/04/30 04:44:09;;;;;;;6.13;5.10;;;;;;;;;;5015172;28;20045;-81
2022/04/30 04:46:35;;;;;;;5.55;4.13;;;;;;;;;;5014493;28;20113;-81
2022/04/30 04:49:01;;;;;;;8.20;4.60;;;;;;;;;;5015311;28;20060;-81
2022/04/30 04:51:27;;;;;;;7.60;4.30;;;;;;;;;;4997710;28;20042;-81
2022/04/30 04:53:52;;;;;;;10.07;4.60;;;;;;;;;;4981479;28;20084;-81
2022/04/30 04:56:18;;;;;;;6.90;4.20;;;;;;;;;;5014736;28;20054;-81
2022/04/30 04:58:43;;;;;;;5.45;4.40;;;;;;;;;;5014247;28;20034;-81
2022/04/30 05:01:09;;;;;;;6.47;4.50;;;;;;;;;;5014482;28;20021;-81
2022/04/30 05:03:34;;;;;;;6.75;4.25;;;;;;;;;;5015112;28;20045;-81
2022/04/30 05:06:00;;;;;;;7.05;3.90;;;;;;;;;;5014184;28;20041;-81
2022/04/30 05:08:25;;;;;;;6.25;4.50;;;;;;;;;;5014227;28;20049;-81
2022/04/30 05:10:50;;;;;;;5.10;3.85;;;;;;;;;;5015474;28;20397;-81
2022/04/30 05:13:16;;;;;;;5.35;3.97;;;;;;;;;;5014261;28;20117;-81
2022/04/30 05:15:41;;;;;;;5.20;4.00;;;;;;;;;;4996882;28;20120;-81
2022/04/30 05:18:10;;;;;;;8.38;3.90;;;;;;;;;;4998161;28;20041;-81
2022/04/30 05:20:35;;;;;;;5.85;3.80;;;;;;;;;;4997622;28;20033;-81
2022/04/30 05:23:00;;;;;;;6.93;4.68;;;;;;;;;;4980503;28;20564;-81
2022/04/30 05:25:26;;;;;;;9.88;4.97;;;;;;;;;;5014159;28;20038;-81
2022/04/30 05:27:52;;;;;;;13.55;6.80;;;;;;;;;;5013959;28;20037;-81
2022/04/30 05:30:17;;;;;;;10.55;4.40;;;;;;;;;;5013819;28;20490;-81
2022/04/30 05:32:43;;;;;;;7.97;4.25;;;;;;;;;;4997127;28;20076;-81
2022/04/30 05:35:08;;;;;;;5.82;4.22;;;;;;;;;;5013343;28;20379;-81
2022/04/30 05:37:34;;;;;;;6.68;4.45;;;;;;;;;;5014625;28;20042;-81
2022/04/30 05:39:59;;;;;;;8.63;4.70;;;;;;;;;;5013297;28;20077;-81
2022/04/30 05:42:25;;;;;;;8.20;4.68;;;;;;;;;;5015033;28;20091;-81
2022/04/30 05:44:50;;;;;;;6.13;4.70;;;;;;;;;;5013267;28;20038;-81
2022/04/30 05:47:19;;;;;;;7.75;4.80;;;;;;;;;;5014580;28;20046;-81
2022/04/30 05:49:45;;;;;;;7.95;4.75;;;;;;;;;;5013454;28;20458;-81
2022/04/30 05:52:11;;;;;;;8.45;4.93;;;;;;;;;;5013668;28;20042;-81
2022/04/30 05:54:37;;;;;;;5.97;4.60;;;;;;;;;;5012705;28;20048;-81
2022/04/30 05:57:03;;;;;;;9.40;5.35;;;;;;;;;;4997139;28;20109;-81
2022/04/30 05:59:28;;;;;;;10.55;6.57;;;;;;;;;;5014416;28;20453;-81
2022/04/30 06:01:54;;;;;;;9.25;5.95;;;;;;;;;;5013344;28;20030;-81
2022/04/30 06:04:20;;;;;;;7.88;5.22;;;;;;;;;;4996126;28;20073;-81
2022/04/30 06:06:46;;;;;;;9.05;5.15;;;;;;;;;;5014299;28;20136;-81
2022/04/30 06:09:11;;;;;;;6.13;4.10;;;;;;;;;;5013439;28;20069;-80
2022/04/30 06:11:37;;;;;;;5.07;4.03;;;;;;;;;;4997177;28;20072;-81
2022/04/30 06:14:02;;;;;;;5.10;3.83;;;;;;;;;;5013334;28;20038;-81
2022/04/30 06:16:28;;;;;;;4.18;3.60;;;;;;;;;;5013625;28;20037;-82
2022/04/30 06:18:53;;;;;;;4.20;3.63;;;;;;;;;;5014398;28;20069;-82
2022/04/30 06:21:20;;;;;;;5.25;3.92;;;;;;;;;;4997034;28;20038;-81
2022/04/30 06:23:45;;;;;;;5.95;3.88;;;;;;;;;;5014210;28;20037;-81
2022/04/30 06:26:11;;;;;;;5.68;3.65;;;;;;;;;;4996176;28;20030;-81
2022/04/30 06:28:36;;;;;;;5.22;3.75;;;;;;;;;;4996510;28;20026;-82
2022/04/30 06:31:02;;;;;;;6.22;3.97;;;;;;;;;;5013921;28;20034;-83
2022/04/30 06:33:28;;;;;;;5.70;3.92;;;;;;;;;;5013261;28;20383;-83
2022/04/30 06:35:53;;;;;;;4.93;3.83;;;;;;;;;;4998818;28;20092;-82
2022/04/30 06:38:19;;;;;;;6.80;3.78;;;;;;;;;;5018067;28;20033;-83
2022/04/30 06:40:44;;;;;;;4.97;3.90;;;;;;;;;;5017050;28;20036;-83
2022/04/30 06:43:10;;;;;;;5.38;3.80;;;;;;;;;;5018699;28;20049;-83
2022/04/30 06:45:35;;;;;;;6.68;4.03;;;;;;;;;;5016284;28;20030;-83
2022/04/30 06:48:01;;;;;;;7.68;4.20;;;;;;;;;;5000508;28;20117;-83
2022/04/30 06:50:26;;;;;;;5.60;4.50;;;;;;;;;;5000311;28;20144;-83
2022/04/30 06:58:19;;;;;;;4.13;3.10;;;;;;;;;;5016590;28;20038;-82
2022/04/30 07:03:24;;;;;;;7.25;3.90;;;;;;;;;;5016751;28;20038;-82
2022/04/30 07:06:02;;;;;;;7.65;4.00;;;;;;;;;;4999083;28;20042;-82
2022/04/30 07:08:28;;;;;;;6.32;3.70;;;;;;;;;;5016797;28;20048;-82
2022/04/30 07:10:53;;;;;;;5.82;3.83;;;;;;;;;;5000014;28;20434;-82
2022/04/30 07:13:19;;;;;;;4.78;3.80;;;;;;;;;;4983848;28;20034;-82
2022/04/30 07:15:44;;;;;;;6.38;4.43;;;;;;;;;;5016272;28;20109;-87
2022/04/30 07:18:10;;;;;;;5.72;4.60;;;;;;;;;;5017962;28;20125;-83
2022/04/30 07:20:35;;;;;;;6.50;4.93;;;;;;;;;;5018167;28;20081;-83
2022/04/30 07:23:01;;;;;;;7.65;4.93;;;;;;;;;;5016650;28;20184;-81
2022/04/30 07:25:26;;;;;;;7.43;4.95;;;;;;;;;;5016172;28;20107;-81
2022/04/30 07:27:52;;;;;;;5.85;4.82;;;;;;;;;;4999584;28;20058;-81
2022/04/30 07:30:17;;;;;;;9.25;5.00;;;;;;;;;;5015386;28;20521;-82
2022/04/30 07:32:42;;;;;;;13.00;4.82;;;;;;;;;;4998955;28;20128;-81
2022/04/30 07:35:08;;;;;;;7.78;5.05;;;;;;;;;;5016033;28;20045;-82
2022/04/30 07:37:33;;;;;;;14.15;4.95;;;;;;;;;;5017094;28;20047;-82
2022/04/30 07:39:59;;;;;;;7.72;4.97;;;;;;;;;;5015528;28;20112;-82
2022/04/30 07:42:24;;;;;;;9.40;5.38;;;;;;;;;;4998979;28;20110;-82
2022/04/30 07:44:50;;;;;;;6.97;5.30;;;;;;;;;;4998771;28;20045;-82
2022/04/30 07:47:15;;;;;;;6.45;5.00;;;;;;;;;;5018078;28;20030;-83
2022/04/30 07:49:41;;;;;;;5.93;4.90;;;;;;;;;;5033756;28;20044;-83
2022/04/30 07:52:07;;;;;;;11.43;4.95;;;;;;;;;;5018818;28;20065;-82
2022/04/30 07:54:32;;;;;;;9.00;4.75;;;;;;;;;;5018138;28;20033;-82
2022/04/30 07:56:59;;;;;;;6.78;4.55;;;;;;;;;;5018478;28;20043;-82
2022/04/30 07:59:25;;;;;;;7.97;4.25;;;;;;;;;;5036484;28;20084;-83
2022/04/30 08:01:50;;;;;;;5.85;4.30;;;;;;;;;;5034620;28;20037;-82
2022/04/30 08:04:16;;;;;;;6.72;4.15;;;;;;;;;;5035523;28;20072;-82
2022/04/30 08:06:41;;;;;;;8.65;4.40;;;;;;;;;;5035809;28;20041;-82
2022/04/30 08:09:07;;;;;;;13.63;5.13;;;;;;;;;;5035902;28;20049;-83
2022/04/30 08:11:32;;;;;;;7.68;4.45;;;;;;;;;;5034813;28;20545;-82
2022/04/30 08:13:58;;;;;;;6.63;4.60;;;;;;;;;;5017500;28;20109;-81
2022/04/30 08:16:23;;;;;;;7.95;5.32;;;;;;;;;;5018363;28;20133;-83
2022/04/30 08:18:49;;;;;;;9.15;5.53;;;;;;;;;;5034404;28;20029;-83
2022/04/30 08:21:14;;;;;;;9.90;6.20;;;;;;;;;;5018046;28;20444;-82
2022/04/30 08:23:39;;;;;;;7.20;5.45;;;;;;;;;;5035079;28;20048;-82
2022/04/30 08:26:05;;;;;;;9.13;5.93;;;;;;;;;;5035148;28;20037;-82
2022/04/30 08:28:30;;;;;;;8.15;5.97;;;;;;;;;;5035584;28;20120;-83
2022/04/30 08:30:56;;;;;;;7.55;5.70;;;;;;;;;;5018129;28;20041;-82
2022/04/30 08:33:22;;;;;;;7.80;5.78;;;;;;;;;;5034877;28;20041;-82
2022/04/30 08:35:48;;;;;;;8.35;5.85;;;;;;;;;;5001164;28;20029;-82
2022/04/30 08:38:14;;;;;;;9.98;5.90;;;;;;;;;;5035091;28;20065;-82
2022/04/30 08:40:41;;;;;;;9.45;5.82;;;;;;;;;;5034164;28;20037;-83
2022/04/30 08:43:08;;;;;;;9.43;6.00;;;;;;;;;;5001585;28;20083;-82
2022/04/30 08:45:33;;;;;;;7.53;5.88;;;;;;;;;;5017243;28;20079;-82
2022/04/30 08:48:00;;;;;;;9.13;6.28;;;;;;;;;;5017801;28;20473;-83
2022/04/30 08:50:25;;;;;;;12.57;5.97;;;;;;;;;;5001946;28;20040;-83
2022/04/30 08:52:51;;;;;;;10.90;6.50;;;;;;;;;;5034267;28;20418;-83
2022/04/30 08:55:17;;;;;;;8.90;5.82;;;;;;;;;;5033369;28;20482;-83
2022/04/30 08:57:42;;;;;;;7.63;6.38;;;;;;;;;;5034510;28;20036;-82
2022/04/30 09:00:08;;;;;;;9.05;6.22;;;;;;;;;;5033982;28;20060;-81
2022/04/30 09:02:34;;;;;;;7.45;5.90;;;;;;;;;;5017660;28;20056;-81
2022/04/30 09:05:00;;;;;;;12.07;7.03;;;;;;;;;;5033642;28;20477;-83
2022/04/30 09:07:26;;;;;;;7.63;5.40;;;;;;;;;;5035204;28;20033;-81
2022/04/30 09:10:00;;;;;;;9.95;6.07;;;;;;;;;;5017237;28;20040;-82
2022/04/30 09:12:26;;;;;;;8.65;5.65;;;;;;;;;;5017968;28;20034;-82
2022/04/30 09:14:52;;;;;;;7.25;5.97;;;;;;;;;;5016821;28;20155;-81
2022/04/30 09:17:18;;;;;;;11.68;5.60;;;;;;;;;;5035103;28;20040;-82
2022/04/30 09:19:52;;;;;;;8.20;5.60;;;;;;;;;;5033923;28;20037;-82
2022/04/30 09:22:30;;;;;;;8.50;5.55;;;;;;;;;;5033809;28;20056;-82
2022/04/30 09:24:55;;;;;;;9.90;6.32;;;;;;;;;;5034453;28;20033;-82
2022/04/30 09:27:21;;;;;;;12.68;6.50;;;;;;;;;;5033563;28;20082;-82
2022/04/30 09:29:46;;;;;;;9.35;6.55;;;;;;;;;;5033629;28;20063;-83
2022/04/30 09:32:19;;;;;;;9.95;5.82;;;;;;;;;;5035383;28;20060;-84
2022/04/30 09:37:41;;;;;;;9.82;6.93;;;;;;;;;;5034763;28;20041;-84
2022/04/30 09:40:19;;;;;;;9.68;6.47;;;;;;;;;;5017658;28;20257;-84
2022/04/30 09:42:48;;;;;;;9.15;5.97;;;;;;;;;;5034368;28;20528;-83
2022/04/30 09:45:31;;;;;;;12.30;6.55;;;;;;;;;;5034485;28;20033;-84
2022/04/30 09:48:00;;;;;;;7.97;6.23;;;;;;;;;;5017867;28;20025;-84
2022/04/30 09:56:02;;;;;;;8.93;5.78;;;;;;;;;;5034546;28;20115;-83
2022/04/30 09:58:27;;;;;;;11.20;5.65;;;;;;;;;;5033588;28;20397;-83
2022/04/30 10:00:54;;;;;;;8.50;6.20;;;;;;;;;;5035032;28;20119;-83
2022/04/30 10:03:22;;;;;;;8.98;5.82;;;;;;;;;;5017452;28;20490;-84
2022/04/30 10:05:47;;;;;;;9.73;6.05;;;;;;;;;;5016607;28;20037;-83
2022/04/30 10:08:13;;;;;;;10.00;5.95;;;;;;;;;;5033755;28;20047;-83
2022/04/30 10:10:42;;;;;;;7.65;5.68;;;;;;;;;;5019197;28;20057;-83
2022/04/30 10:13:32;;;;;;;9.07;6.03;;;;;;;;;;5005240;28;20112;-84
2022/04/30 10:15:57;;;;;;;7.88;5.90;;;;;;;;;;5037978;28;20052;-83
2022/04/30 10:18:41;;;;;;;7.57;6.47;;;;;;;;;;5005072;28;20442;-84
2022/04/30 10:21:16;;;;;;;10.27;6.25;;;;;;;;;;5037617;28;20049;-84
2022/04/30 10:23:42;;;;;;;7.63;6.20;;;;;;;;;;5037990;28;20049;-83
2022/04/30 10:26:07;;;;;;;7.72;5.85;;;;;;;;;;5020627;28;20033;-84
2022/04/30 10:28:33;;;;;;;7.72;6.07;;;;;;;;;;5021143;28;20021;-83
2022/04/30 10:31:02;;;;;;;10.35;5.95;;;;;;;;;;5039663;23;20047;-85
2022/04/30 10:33:27;;;;;;;7.93;5.72;;;;;;;;;;5027106;28;20065;-84
2022/04/30 10:36:03;;;;;;;10.13;6.38;;;;;;;;;;4984959;28;20398;-84
2022/04/30 10:38:28;;;;;;;9.63;6.53;;;;;;;;;;5018468;28;20073;-85
2022/04/30 10:40:58;;;;;;;10.45;6.43;;;;;;;;;;5002968;28;20048;-86
2022/04/30 10:43:32;;;;;;;9.23;5.70;;;;;;;;;;5004436;28;20048;-85
2022/04/30 10:46:00;;;;;;;8.98;6.05;;;;;;;;;;5001845;28;20120;-83
2022/04/30 10:48:26;;;;;;;9.60;5.82;;;;;;;;;;5001968;28;20034;-83
2022/04/30 10:51:05;;;;;;;8.20;5.70;;;;;;;;;;5001757;28;20045;-82
2022/04/30 10:53:31;;;;;;;8.75;5.40;;;;;;;;;;4985014;28;20049;-82
2022/04/30 10:55:56;;;;;;;8.15;5.35;;;;;;;;;;4984108;28;20038;-82
2022/04/30 10:58:25;;;;;;;7.18;5.80;;;;;;;;;;4984043;28;20030;-83
2022/04/30 11:00:51;;;;;;;7.68;5.60;;;;;;;;;;4990464;28;20029;-84
2022/04/30 11:03:17;;;;;;;8.00;6.18;;;;;;;;;;4987269;28;20530;-83
2022/04/30 11:05:43;;;;;;;8.02;6.30;;;;;;;;;;5017988;28;20502;-83
2022/04/30 11:08:09;;;;;;;7.85;6.20;;;;;;;;;;5003066;28;20513;-85
2022/04/30 11:10:34;;;;;;;7.72;6.10;;;;;;;;;;5018706;28;20034;-84
2022/04/30 11:13:06;;;;;;;11.68;5.97;;;;;;;;;;5001630;28;20057;-84
2022/04/30 11:15:32;;;;;;;8.50;5.93;;;;;;;;;;5017301;28;20034;-84
2022/04/30 11:17:58;;;;;;;8.52;6.32;;;;;;;;;;4985597;28;20065;-83
2022/04/30 11:20:24;;;;;;;8.93;6.50;;;;;;;;;;5000820;28;20065;-82
2022/04/30 11:22:54;;;;;;;9.90;6.72;;;;;;;;;;5002457;28;20042;-84
2022/04/30 11:25:20;;;;;;;8.13;6.70;;;;;;;;;;5001986;28;20042;-83
2022/04/30 11:27:45;;;;;;;10.60;7.07;;;;;;;;;;5019859;28;20064;-83
2022/04/30 11:30:11;;;;;;;9.10;7.00;;;;;;;;;;4992362;28;20046;-84
2022/04/30 11:32:36;;;;;;;11.40;7.15;;;;;;;;;;5019224;28;20702;-85
2022/04/30 11:35:03;;;;;;;12.90;8.00;;;;;;;;;;5001055;28;20621;-84
2022/04/30 11:37:42;;;;;;;11.10;7.80;;;;;;;;;;5018532;28;20021;-84
2022/04/30 11:40:09;;;;;;;9.75;7.90;;;;;;;;;;5018027;28;20048;-84
2022/04/30 11:42:34;;;;;;;10.95;7.35;;;;;;;;;;5017047;28;20038;-84
2022/04/30 11:44:59;;;;;;;8.73;7.13;;;;;;;;;;4999830;28;20038;-83
2022/04/30 11:47:25;;;;;;;8.75;7.15;;;;;;;;;;5018224;28;20080;-86
2022/04/30 11:50:10;;;;;;;12.23;8.13;;;;;;;;;;5022937;28;20034;-84
2022/04/30 11:52:36;;;;;;;11.23;8.00;;;;;;;;;;4991036;28;20042;-84
2022/04/30 11:55:05;;;;;;;12.45;8.50;;;;;;;;;;4986524;28;20042;-83
2022/04/30 11:57:34;;;;;;;10.98;7.97;;;;;;;;;;5021397;28;20072;-85
2022/04/30 11:59:59;;;;;;;11.13;7.93;;;;;;;;;;5021318;28;20128;-85
2022/04/30 12:02:28;;;;;;;9.73;7.35;;;;;;;;;;4987251;28;20032;-84
2022/04/30 12:04:59;;;;;;;13.10;8.32;;;;;;;;;;5002282;28;20084;-84
2022/04/30 12:07:34;;;;;;;11.95;8.48;;;;;;;;;;5017096;28;20049;-83
2022/04/30 12:10:00;;;;;;;12.52;8.13;;;;;;;;;;5006016;28;20053;-84
2022/04/30 12:12:26;;;;;;;12.38;7.95;;;;;;;;;;5020231;28;20030;-86
2022/04/30 12:14:53;;;;;;;11.90;8.85;;;;;;;;;;5004177;28;20044;-83
2022/04/30 12:17:18;;;;;;;16.52;8.80;;;;;;;;;;4990017;28;20034;-85
2022/04/30 12:25:14;;;;;;;13.20;10.18;;;;;;;;;;4991638;28;20038;-85
2022/04/30 12:27:56;;;;;;;14.90;10.63;;;;;;;;;;5004341;28;20034;-85
2022/04/30 12:30:23;;;;;;;16.08;10.25;;;;;;;;;;5017644;28;20026;-84
2022/04/30 12:33:05;;;;;;;18.42;10.52;;;;;;;;;;5001261;28;20520;-85
2022/04/30 12:35:34;;;;;;;14.55;10.77;;;;;;;;;;4983815;28;20064;-84
2022/04/30 12:38:03;;;;;;;17.40;10.90;;;;;;;;;;5015854;28;20038;-85
2022/04/30 12:40:28;;;;;;;15.63;10.40;;;;;;;;;;4999903;28;20037;-84
2022/04/30 12:42:53;;;;;;;15.07;10.80;;;;;;;;;;4999279;28;20441;-85
2022/04/30 12:45:19;;;;;;;15.65;9.98;;;;;;;;;;5015201;28;20497;-84
2022/04/30 12:47:44;;;;;;;12.88;9.20;;;;;;;;;;4998679;28;20104;-84
2022/04/30 12:50:10;;;;;;;13.50;9.93;;;;;;;;;;4999452;28;20080;-85
2022/04/30 12:52:35;;;;;;;11.15;9.15;;;;;;;;;;5015286;28;20053;-84
2022/04/30 12:55:01;;;;;;;15.07;8.98;;;;;;;;;;5015799;28;20066;-84
2022/04/30 12:57:26;;;;;;;13.40;9.25;;;;;;;;;;4998826;28;20072;-85
2022/04/30 12:59:53;;;;;;;13.90;8.90;;;;;;;;;;4982217;28;20034;-84
2022/04/30 13:02:22;;;;;;;12.65;10.23;;;;;;;;;;4997455;28;20518;-83
2022/04/30 13:04:50;;;;;;;10.73;9.00;;;;;;;;;;4996710;28;20063;-83
2022/04/30 13:07:16;;;;;;;12.32;9.10;;;;;;;;;;4997218;28;20037;-89
2022/04/30 13:15:09;;;;;;;13.50;10.05;;;;;;;;;;5000255;28;20088;-82
2022/04/30 13:17:35;;;;;;;12.93;9.90;;;;;;;;;;5016035;28;20065;-84
2022/04/30 13:20:01;;;;;;;13.95;9.65;;;;;;;;;;5001195;28;20073;-82
2022/04/30 13:22:27;;;;;;;14.35;10.25;;;;;;;;;;4983949;28;20080;-84
2022/04/30 13:24:52;;;;;;;13.43;10.27;;;;;;;;;;4954632;28;20030;-83
2022/04/30 13:27:18;;;;;;;13.75;10.10;;;;;;;;;;4972402;28;20051;-83
2022/04/30 13:29:43;;;;;;;14.27;10.43;;;;;;;;;;4992863;28;20072;-84
2022/04/30 13:32:10;;;;;;;12.68;9.57;;;;;;;;;;4981126;28;20124;-83
2022/04/30 13:34:36;;;;;;;13.63;9.85;;;;;;;;;;5014788;28;20065;-83
2022/04/30 13:37:02;;;;;;;13.10;9.20;;;;;;;;;;4965029;28;20406;-82
2022/04/30 13:39:28;;;;;;;11.75;9.50;;;;;;;;;;4981613;28;20034;-83
2022/04/30 13:41:53;;;;;;;13.30;9.90;;;;;;;;;;4965019;28;20033;-82
2022/04/30 13:44:19;;;;;;;12.00;9.25;;;;;;;;;;5013560;28;20102;-83
2022/04/30 13:46:47;;;;;;;13.52;9.75;;;;;;;;;;4997546;28;20458;-83
2022/04/30 13:49:13;;;;;;;12.10;9.80;;;;;;;;;;4999049;28;20037;-84
2022/04/30 13:51:38;;;;;;;13.15;9.50;;;;;;;;;;4981748;28;20041;-82
2022/04/30 13:54:04;;;;;;;12.57;9.60;;;;;;;;;;4981791;28;20034;-85
2022/04/30 13:56:29;;;;;;;16.38;9.70;;;;;;;;;;4998106;28;20042;-82
2022/04/30 13:58:58;;;;;;;11.85;8.60;;;;;;;;;;4981404;28;20121;-83
2022/04/30 14:01:24;;;;;;;11.80;8.93;;;;;;;;;;4981008;28;20459;-85
2022/04/30 14:03:53;;;;;;;11.90;8.52;;;;;;;;;;4997844;28;20498;-84
2022/04/30 14:06:18;;;;;;;11.38;9.18;;;;;;;;;;5018124;28;20121;-84
2022/04/30 14:08:43;;;;;;;10.65;8.85;;;;;;;;;;5015798;28;20069;-84
2022/04/30 14:11:09;;;;;;;11.75;8.77;;;;;;;;;;4999035;28;20058;-83
2022/04/30 14:16:18;;;;;;;12.02;9.02;;;;;;;;;;4999801;28;20041;-85
2022/04/30 14:18:46;;;;;;;11.50;9.20;;;;;;;;;;4985317;28;20042;-85
2022/04/30 14:21:11;;;;;;;11.57;8.90;;;;;;;;;;4998975;28;20076;-86
2022/04/30 14:23:37;;;;;;;11.75;8.27;;;;;;;;;;4997559;28;20124;-84
2022/04/30 14:26:04;;;;;;;10.00;8.30;;;;;;;;;;4995660;28;20057;-85
2022/04/30 14:28:30;;;;;;;12.23;9.30;;;;;;;;;;4972531;28;20465;-83
2022/04/30 14:30:56;;;;;;;12.68;8.60;;;;;;;;;;4983252;28;20104;-84
2022/04/30 14:33:21;;;;;;;10.93;8.40;;;;;;;;;;4983629;28;20475;-84
2022/04/30 14:35:48;;;;;;;11.60;8.60;;;;;;;;;;4965196;28;20069;-85
2022/04/30 14:38:15;;;;;;;13.98;9.02;;;;;;;;;;5016275;28;20033;-84
2022/04/30 14:40:43;;;;;;;12.23;8.55;;;;;;;;;;4982181;28;20528;-84
2022/04/30 14:43:09;;;;;;;12.13;9.10;;;;;;;;;;4982106;28;20084;-84
2022/04/30 14:45:39;;;;;;;13.45;10.48;;;;;;;;;;4982008;28;20041;-82
2022/04/30 14:48:05;;;;;;;12.63;10.40;;;;;;;;;;4982793;28;20030;-83
2022/04/30 14:50:30;;;;;;;12.85;10.05;;;;;;;;;;4997720;28;20029;-83
2022/04/30 14:52:56;;;;;;;16.27;10.45;;;;;;;;;;4997636;28;20041;-83
2022/04/30 14:55:22;;;;;;;12.40;10.40;;;;;;;;;;4965359;28;20025;-83
2022/04/30 14:57:47;;;;;;;12.48;9.20;;;;;;;;;;4986053;28;20038;-85
2022/04/30 15:00:13;;;;;;;12.07;8.93;;;;;;;;;;5019397;28;20053;-83
2022/04/30 15:02:39;;;;;;;14.35;9.98;;;;;;;;;;4984605;28;20100;-83
2022/04/30 15:05:05;;;;;;;14.40;10.63;;;;;;;;;;4983863;28;20061;-81
2022/04/30 15:07:30;;;;;;;16.08;11.10;;;;;;;;;;5000519;28;20052;-85
2022/04/30 15:09:56;;;;;;;12.07;9.55;;;;;;;;;;4983879;28;20064;-84
2022/04/30 15:12:21;;;;;;;14.57;10.65;;;;;;;;;;5017313;28;20038;-82
2022/04/30 15:14:47;;;;;;;15.00;10.98;;;;;;;;;;4984061;28;20165;-83
2022/04/30 15:17:13;;;;;;;16.40;10.93;;;;;;;;;;4992530;28;20038;-83
2022/04/30 15:19:38;;;;;;;13.95;10.18;;;;;;;;;;5016595;28;20113;-85
2022/04/30 15:22:04;;;;;;;14.50;11.25;;;;;;;;;;4983221;28;20038;-83
2022/04/30 15:24:29;;;;;;;15.07;11.70;;;;;;;;;;4999194;28;20042;-86
2022/04/30 15:26:54;;;;;;;16.00;11.18;;;;;;;;;;4983130;28;20483;-84
2022/04/30 15:29:27;;;;;;;13.43;10.35;;;;;;;;;;4982759;28;20457;-83